Time;durP1;ratioP1;P1;durP2;ratioP2;P2;SDS_P1;SDS_P2;PMS_P1;PMS_P2;Temp;Humidity;BMP_temperature;BMP_pressure;BME280_temperature;BME280_humidity;BME280_pressure;Samples;Min_cycle;Max_cycle;Signal;HPM_P1;HPM_P2
2023/07/31 00:01:51;;;;;;;11.60;4.30;;;20.40;98.90;;;;;;4263965;27;20047;-51
2023/07/31 00:03:54;;;;;;;6.88;3.35;;;20.30;98.80;;;;;;4264900;27;20054;-50
2023/07/31 00:05:57;;;;;;;11.50;3.47;;;20.30;98.80;;;;;;4264826;27;20074;-50
2023/07/31 00:07:59;;;;;;;8.50;3.30;;;20.30;98.80;;;;;;4264780;27;20071;-50
2023/07/31 00:10:01;;;;;;;8.00;3.38;;;20.30;98.80;;;;;;4264552;27;20475;-52
2023/07/31 00:12:03;;;;;;;9.48;3.42;;;20.30;98.90;;;;;;4264363;27;20039;-52
2023/07/31 00:14:06;;;;;;;10.10;4.18;;;20.30;98.80;;;;;;4264670;27;20112;-52
2023/07/31 00:16:08;;;;;;;8.52;3.50;;;20.30;98.80;;;;;;4246537;28;20538;-52
2023/07/31 00:18:10;;;;;;;8.18;3.58;;;20.30;98.80;;;;;;4264643;27;20046;-52
2023/07/31 00:20:13;;;;;;;10.45;3.47;;;20.30;98.80;;;;;;4264599;27;20099;-52
2023/07/31 00:22:15;;;;;;;9.02;3.40;;;20.30;98.80;;;;;;4263876;27;20081;-52
2023/07/31 00:24:18;;;;;;;7.65;3.45;;;20.30;98.90;;;;;;4264138;27;20050;-52
2023/07/31 00:26:19;;;;;;;7.55;3.38;;;20.30;99.00;;;;;;4264842;27;20123;-52
2023/07/31 00:28:21;;;;;;;8.10;3.50;;;20.30;98.70;;;;;;4264718;27;20476;-52
2023/07/31 00:30:25;;;;;;;6.72;3.70;;;20.30;98.80;;;;;;4264663;27;20047;-51
2023/07/31 00:32:27;;;;;;;7.30;3.58;;;20.30;98.80;;;;;;4263797;27;20070;-51
2023/07/31 00:34:29;;;;;;;9.02;3.28;;;20.30;98.90;;;;;;4264495;27;20043;-52
2023/07/31 00:36:32;;;;;;;10.60;3.35;;;20.30;98.90;;;;;;4264649;27;20050;-53
2023/07/31 00:38:35;;;;;;;12.63;3.75;;;20.30;98.80;;;;;;4264118;27;20042;-52
2023/07/31 00:40:37;;;;;;;10.10;3.38;;;20.30;98.80;;;;;;4264246;27;20122;-52
2023/07/31 00:42:39;;;;;;;10.23;3.63;;;20.30;98.80;;;;;;4263681;27;20038;-53
2023/07/31 00:44:41;;;;;;;9.25;3.50;;;20.30;98.80;;;;;;4264687;27;20042;-52
2023/07/31 00:46:43;;;;;;;7.32;3.10;;;20.30;98.90;;;;;;4264323;27;20070;-53
2023/07/31 00:48:46;;;;;;;8.52;3.35;;;20.30;98.80;;;;;;4264646;27;20091;-52
2023/07/31 00:50:48;;;;;;;9.27;3.55;;;20.30;98.80;;;;;;4264293;27;20375;-52
2023/07/31 00:52:52;;;;;;;15.60;4.65;;;20.30;99.10;;;;;;4263368;27;20146;-53
2023/07/31 00:54:54;;;;;;;8.40;3.25;;;20.30;98.80;;;;;;4267093;27;20047;-52
2023/07/31 00:56:57;;;;;;;8.70;3.40;;;20.20;98.80;;;;;;4267489;27;20043;-51
2023/07/31 00:58:59;;;;;;;8.73;3.30;;;20.20;98.80;;;;;;4267754;27;20121;-52
2023/07/31 01:01:02;;;;;;;8.75;3.60;;;20.20;98.80;;;;;;4266988;27;20043;-52
2023/07/31 01:03:04;;;;;;;9.07;3.28;;;20.20;98.80;;;;;;4267305;27;20046;-52
2023/07/31 01:05:06;;;;;;;10.25;3.70;;;20.20;98.80;;;;;;4267290;27;20052;-52
2023/07/31 01:07:13;;;;;;;5.75;3.25;;;20.20;98.90;;;;;;4266782;27;20043;-51
2023/07/31 01:09:28;;;;;;;8.20;2.97;;;20.10;98.60;;;;;;4267442;27;20046;-52
2023/07/31 01:11:33;;;;;;;8.07;3.40;;;20.10;98.70;;;;;;4266755;27;20049;-51
2023/07/31 01:13:35;;;;;;;;;;;20.20;98.80;;;;;;4267665;27;20111;-51
2023/07/31 01:15:38;;;;;;;11.35;3.78;;;20.20;98.70;;;;;;4267286;27;20397;-51
2023/07/31 01:17:41;;;;;;;9.40;3.95;;;20.10;98.70;;;;;;4267352;27;20046;-52
2023/07/31 01:19:44;;;;;;;7.78;3.20;;;20.20;98.80;;;;;;4267349;27;20126;-51
2023/07/31 01:22:02;;;;;;;5.75;3.00;;;20.20;98.70;;;;;;4265985;27;20046;-50
2023/07/31 01:24:30;;;;;;;9.27;3.30;;;20.20;98.70;;;;;;4267197;27;20047;-50
2023/07/31 01:26:36;;;;;;;11.18;3.63;;;20.20;98.60;;;;;;4267178;27;20046;-49
2023/07/31 01:28:46;;;;;;;8.00;3.17;;;20.20;98.60;;;;;;4267202;27;20107;-49
2023/07/31 01:30:49;;;;;;;11.13;3.53;;;20.20;98.70;;;;;;4266958;27;20125;-54
2023/07/31 01:32:54;;;;;;;9.07;3.20;;;20.10;98.60;;;;;;4248017;27;20051;-54
2023/07/31 01:35:01;;;;;;;7.00;3.15;;;20.10;98.50;;;;;;4267148;27;20066;-52
2023/07/31 01:37:08;;;;;;;10.60;3.15;;;20.10;98.50;;;;;;4266549;27;20057;-53
2023/07/31 01:39:10;;;;;;;8.48;3.60;;;20.10;98.40;;;;;;4266788;27;20122;-55
2023/07/31 01:41:13;;;;;;;5.75;2.88;;;20.10;98.40;;;;;;4266183;27;20049;-55
2023/07/31 01:43:17;;;;;;;8.50;3.25;;;20.10;98.50;;;;;;4266802;27;20042;-54
2023/07/31 01:45:24;;;;;;;8.40;3.28;;;20.10;98.40;;;;;;4249064;27;20071;-54
2023/07/31 01:47:26;;;;;;;6.05;2.90;;;20.10;98.40;;;;;;4266676;27;20551;-55
2023/07/31 01:49:28;;;;;;;6.82;3.25;;;20.10;98.30;;;;;;4266476;27;20104;-53
2023/07/31 01:51:33;;;;;;;6.10;2.75;;;20.10;98.10;;;;;;4265481;27;20050;-52
2023/07/31 01:53:35;;;;;;;8.88;3.38;;;20.00;98.00;;;;;;4266407;27;20049;-53
2023/07/31 01:55:38;;;;;;;8.65;3.15;;;20.00;97.90;;;;;;4266549;27;20042;-52
2023/07/31 01:57:40;;;;;;;7.80;3.30;;;20.00;98.20;;;;;;4266642;27;20134;-52
2023/07/31 01:59:43;;;;;;;7.45;3.15;;;20.00;97.80;;;;;;4266650;27;20046;-52
2023/07/31 02:01:50;;;;;;;10.43;3.75;;;20.00;98.00;;;;;;4265836;27;20201;-51
2023/07/31 02:03:55;;;;;;;8.93;3.08;;;20.10;98.00;;;;;;4266689;27;20490;-53
2023/07/31 02:05:57;;;;;;;5.07;2.78;;;20.00;97.50;;;;;;4266112;27;20047;-51
2023/07/31 02:07:59;;;;;;;13.27;3.58;;;20.00;97.60;;;;;;4248114;27;20512;-52
2023/07/31 02:10:02;;;;;;;6.70;2.67;;;20.00;97.70;;;;;;4266152;27;20039;-52
2023/07/31 02:12:04;;;;;;;6.93;2.55;;;20.00;97.40;;;;;;4265513;27;20060;-53
2023/07/31 02:14:06;;;;;;;5.18;3.33;;;20.00;97.60;;;;;;4266249;27;20043;-52
2023/07/31 02:16:10;;;;;;;6.70;2.72;;;20.00;97.50;;;;;;4266283;27;20134;-52
2023/07/31 02:18:12;;;;;;;7.15;2.97;;;20.00;97.50;;;;;;4266194;27;20047;-51
2023/07/31 02:20:14;;;;;;;4.35;2.50;;;20.00;97.20;;;;;;4266267;27;20055;-52
2023/07/31 02:22:16;;;;;;;4.90;2.25;;;20.00;97.30;;;;;;4265501;27;20050;-53
2023/07/31 02:24:18;;;;;;;6.70;2.75;;;20.00;97.40;;;;;;4266186;27;20045;-52
2023/07/31 02:26:20;;;;;;;7.85;2.50;;;19.90;97.40;;;;;;4266249;27;20121;-52
2023/07/31 02:28:22;;;;;;;9.13;2.72;;;19.90;97.10;;;;;;4265919;27;20077;-52
2023/07/31 02:30:24;;;;;;;7.72;2.97;;;19.90;97.20;;;;;;4266231;27;20428;-52
2023/07/31 02:32:28;;;;;;;8.48;2.80;;;19.80;97.10;;;;;;4265128;27;20134;-52
2023/07/31 02:34:30;;;;;;;6.20;2.63;;;19.90;97.00;;;;;;4265465;27;20046;-55
2023/07/31 02:36:32;;;;;;;6.95;2.67;;;19.80;97.10;;;;;;4266156;27;20043;-54
2023/07/31 02:38:34;;;;;;;7.50;2.90;;;19.80;97.40;;;;;;4265803;27;20043;-55
2023/07/31 02:40:36;;;;;;;7.53;3.30;;;19.80;97.10;;;;;;4265916;27;20042;-55
2023/07/31 02:42:38;;;;;;;4.25;2.25;;;19.80;97.20;;;;;;4265040;27;20428;-52
2023/07/31 02:44:40;;;;;;;4.20;2.67;;;19.80;97.20;;;;;;4265948;27;20419;-61
2023/07/31 02:46:42;;;;;;;7.38;3.20;;;19.80;97.40;;;;;;4265807;27;20053;-50
2023/07/31 02:48:46;;;;;;;5.30;2.60;;;19.80;97.50;;;;;;4265784;27;20483;-59
2023/07/31 02:50:48;;;;;;;5.38;2.45;;;19.70;97.40;;;;;;4266590;27;20078;-60
2023/07/31 02:52:50;;;;;;;7.05;2.60;;;19.70;97.50;;;;;;4265687;27;20061;-51
2023/07/31 02:54:52;;;;;;;6.35;2.95;;;19.70;97.50;;;;;;4266277;27;20057;-55
2023/07/31 02:56:54;;;;;;;7.15;2.58;;;19.60;97.50;;;;;;4266363;27;20463;-51
2023/07/31 02:58:56;;;;;;;4.88;2.47;;;19.70;97.50;;;;;;4247967;27;20046;-52
2023/07/31 03:00:58;;;;;;;7.45;2.53;;;19.70;97.50;;;;;;4265805;27;20043;-52
2023/07/31 03:03:00;;;;;;;5.18;2.35;;;19.60;97.50;;;;;;4264522;27;20061;-55
2023/07/31 03:05:04;;;;;;;9.85;2.85;;;19.60;97.50;;;;;;4265459;27;20129;-53
2023/07/31 03:07:06;;;;;;;6.05;2.33;;;19.60;97.40;;;;;;4265318;27;20402;-54
2023/07/31 03:09:09;;;;;;;6.53;3.00;;;19.60;97.40;;;;;;4265316;27;20077;-53
2023/07/31 03:11:11;;;;;;;4.85;2.22;;;19.60;97.30;;;;;;4265344;27;20058;-54
2023/07/31 03:13:13;;;;;;;7.00;2.40;;;19.60;97.40;;;;;;4264525;27;20051;-54
2023/07/31 03:15:15;;;;;;;7.15;2.70;;;19.50;97.40;;;;;;4265145;27;20085;-54
2023/07/31 03:17:17;;;;;;;8.73;2.70;;;19.60;97.40;;;;;;4264706;27;20038;-54
2023/07/31 03:19:19;;;;;;;5.35;2.42;;;19.60;97.30;;;;;;4264941;27;20121;-52
2023/07/31 03:21:23;;;;;;;6.97;2.33;;;19.50;97.40;;;;;;4265080;27;20101;-52
2023/07/31 03:23:25;;;;;;;5.60;2.30;;;19.50;97.40;;;;;;4265088;27;20078;-52
2023/07/31 03:25:27;;;;;;;5.05;2.20;;;19.50;97.40;;;;;;4264989;27;20453;-52
2023/07/31 03:27:29;;;;;;;4.78;2.40;;;19.50;97.20;;;;;;4247024;27;20495;-52
2023/07/31 03:29:31;;;;;;;5.72;2.42;;;19.50;97.30;;;;;;4265425;27;20039;-52
2023/07/31 03:31:34;;;;;;;4.10;2.30;;;19.50;97.20;;;;;;4264555;27;20043;-51
2023/07/31 03:33:36;;;;;;;6.47;2.45;;;19.50;97.20;;;;;;4264547;27;20039;-52
2023/07/31 03:35:38;;;;;;;6.57;2.92;;;19.50;97.10;;;;;;4265117;27;20049;-51
2023/07/31 03:37:41;;;;;;;4.03;2.35;;;19.40;97.00;;;;;;4246721;27;20174;-52
2023/07/31 03:39:43;;;;;;;5.15;2.63;;;19.40;97.10;;;;;;4265253;27;20081;-52
2023/07/31 03:41:45;;;;;;;6.68;2.45;;;19.40;97.10;;;;;;4264242;27;20043;-52
2023/07/31 03:43:55;;;;;;;4.15;2.10;;;19.40;97.20;;;;;;4265077;27;20077;-53
2023/07/31 03:45:58;;;;;;;4.82;2.35;;;19.40;97.10;;;;;;4265094;27;20404;-54
2023/07/31 03:48:00;;;;;;;5.85;2.20;;;19.40;97.20;;;;;;4264532;27;20054;-54
2023/07/31 03:50:02;;;;;;;4.75;2.38;;;19.40;97.20;;;;;;4265026;27;20054;-53
2023/07/31 03:52:04;;;;;;;7.05;2.30;;;19.40;97.30;;;;;;4264297;27;20472;-54
2023/07/31 03:54:08;;;;;;;7.97;2.28;;;19.30;97.10;;;;;;4264847;27;20046;-54
2023/07/31 03:56:10;;;;;;;7.35;2.50;;;19.30;97.10;;;;;;4265168;27;20095;-54
2023/07/31 03:58:12;;;;;;;5.18;2.47;;;19.40;97.10;;;;;;4264972;27;20039;-54
2023/07/31 04:00:14;;;;;;;6.18;2.50;;;19.30;97.30;;;;;;4264992;27;20524;-51
2023/07/31 04:02:18;;;;;;;5.85;2.53;;;19.30;97.10;;;;;;4263894;27;20399;-52
2023/07/31 04:04:20;;;;;;;5.90;2.40;;;19.30;97.20;;;;;;4264732;27;20077;-52
2023/07/31 04:06:22;;;;;;;5.90;2.53;;;19.20;97.20;;;;;;4264845;27;20035;-54
2023/07/31 04:08:24;;;;;;;6.28;2.63;;;19.20;97.20;;;;;;4264865;27;20043;-54
2023/07/31 04:10:28;;;;;;;4.45;2.75;;;19.20;97.10;;;;;;4264866;27;20066;-54
2023/07/31 04:12:30;;;;;;;8.02;2.80;;;19.20;96.90;;;;;;4264128;27;20396;-54
2023/07/31 04:14:32;;;;;;;7.88;2.88;;;19.30;96.70;;;;;;4264643;27;20039;-52
2023/07/31 04:16:34;;;;;;;6.68;2.40;;;19.20;96.20;;;;;;4264415;27;20039;-52
2023/07/31 04:18:38;;;;;;;7.63;3.00;;;19.20;96.40;;;;;;4264726;27;20072;-53
2023/07/31 04:20:40;;;;;;;8.23;3.00;;;19.20;96.10;;;;;;4264776;27;20038;-54
2023/07/31 04:22:42;;;;;;;6.65;2.88;;;19.30;96.30;;;;;;4263946;27;20095;-54
2023/07/31 04:24:45;;;;;;;6.85;3.30;;;19.20;96.20;;;;;;4264787;27;20046;-55
2023/07/31 04:26:48;;;;;;;5.93;3.08;;;19.20;96.00;;;;;;4264610;27;20057;-54
2023/07/31 04:28:50;;;;;;;8.77;2.92;;;19.20;96.20;;;;;;4265786;27;20077;-54
2023/07/31 04:30:53;;;;;;;7.00;2.95;;;19.20;96.00;;;;;;4267668;27;20468;-54
2023/07/31 04:32:55;;;;;;;9.70;3.80;;;19.30;96.10;;;;;;4267186;27;20081;-54
2023/07/31 04:34:57;;;;;;;4.95;2.53;;;19.30;96.00;;;;;;4268011;27;20074;-54
2023/07/31 04:36:59;;;;;;;8.00;3.35;;;19.30;96.10;;;;;;4249700;27;20475;-53
2023/07/31 04:39:01;;;;;;;6.93;3.67;;;19.30;96.10;;;;;;4267692;27;20402;-54
2023/07/31 04:41:05;;;;;;;7.45;3.35;;;19.30;96.10;;;;;;4267944;27;20403;-54
2023/07/31 04:43:08;;;;;;;9.05;3.10;;;19.20;96.20;;;;;;4267162;27;20053;-54
2023/07/31 04:45:10;;;;;;;8.55;3.25;;;19.30;96.20;;;;;;4267383;27;20050;-54
2023/07/31 04:47:12;;;;;;;9.75;3.95;;;19.20;96.10;;;;;;4267816;27;20054;-53
2023/07/31 04:49:14;;;;;;;8.75;3.60;;;19.10;96.30;;;;;;4267853;27;20046;-51
2023/07/31 04:51:16;;;;;;;10.15;3.65;;;19.10;96.40;;;;;;4267628;27;20454;-51
2023/07/31 04:53:19;;;;;;;10.40;3.80;;;19.10;96.20;;;;;;4248490;27;20118;-51
2023/07/31 04:55:21;;;;;;;7.00;3.30;;;19.10;96.40;;;;;;4267610;27;20077;-51
2023/07/31 04:57:23;;;;;;;8.43;3.55;;;19.10;96.40;;;;;;4267519;27;20064;-51
2023/07/31 04:59:26;;;;;;;8.93;3.70;;;19.10;96.90;;;;;;4267552;27;20398;-51
2023/07/31 05:01:28;;;;;;;11.35;3.50;;;19.10;97.30;;;;;;4267398;27;20046;-51
2023/07/31 05:03:31;;;;;;;8.50;3.60;;;19.10;97.60;;;;;;4266983;27;20050;-51
2023/07/31 05:05:33;;;;;;;8.88;3.70;;;19.10;97.90;;;;;;4267902;27;20054;-53
2023/07/31 05:07:35;;;;;;;10.43;4.10;;;19.10;98.30;;;;;;4267490;27;20056;-51
2023/07/31 05:09:39;;;;;;;11.23;4.30;;;19.10;97.80;;;;;;4267489;27;20117;-51
2023/07/31 05:11:42;;;;;;;12.50;4.53;;;19.00;97.70;;;;;;4267136;27;20056;-52
2023/07/31 05:13:44;;;;;;;8.90;4.07;;;19.00;98.10;;;;;;4266662;27;20113;-53
2023/07/31 05:15:49;;;;;;;8.68;4.40;;;19.00;98.10;;;;;;4267172;27;20039;-53
2023/07/31 05:17:51;;;;;;;8.38;3.78;;;19.00;98.20;;;;;;4267399;27;20046;-53
2023/07/31 05:19:53;;;;;;;11.00;4.40;;;19.00;98.30;;;;;;4267149;27;20042;-52
2023/07/31 05:21:55;;;;;;;12.65;4.32;;;18.90;98.30;;;;;;4248071;27;20055;-53
2023/07/31 05:23:57;;;;;;;8.32;4.10;;;19.00;98.40;;;;;;4266917;27;20501;-53
2023/07/31 05:26:03;;;;;;;9.65;4.22;;;19.00;98.20;;;;;;4267035;27;20137;-53
2023/07/31 05:28:05;;;;;;;10.10;3.97;;;19.00;98.30;;;;;;4266774;27;20479;-53
2023/07/31 05:30:08;;;;;;;11.23;4.40;;;19.00;98.40;;;;;;4248561;27;20586;-53
2023/07/31 05:32:12;;;;;;;9.50;4.10;;;19.10;98.50;;;;;;4266348;27;20070;-51
2023/07/31 05:34:14;;;;;;;10.63;4.07;;;19.00;98.60;;;;;;4267181;27;20095;-51
2023/07/31 05:36:16;;;;;;;11.38;4.50;;;19.00;98.60;;;;;;4266938;27;20081;-51
2023/07/31 05:38:18;;;;;;;9.82;4.53;;;19.00;98.80;;;;;;4267364;27;20043;-51
2023/07/31 05:40:20;;;;;;;10.98;4.35;;;19.00;98.80;;;;;;4267737;27;20158;-52
2023/07/31 05:42:22;;;;;;;11.35;4.82;;;19.00;99.20;;;;;;4266775;27;20123;-52
2023/07/31 05:44:24;;;;;;;12.57;4.75;;;18.90;99.80;;;;;;4267709;27;20062;-52
2023/07/31 05:46:26;;;;;;;11.02;4.50;;;18.90;99.80;;;;;;4268205;27;20047;-51
2023/07/31 05:48:29;;;;;;;13.73;4.88;;;18.80;99.90;;;;;;4267170;27;20038;-54
2023/07/31 05:50:31;;;;;;;12.80;5.28;;;18.80;99.90;;;;;;4267117;27;20093;-52
2023/07/31 05:52:33;;;;;;;13.85;5.10;;;18.90;99.90;;;;;;4266041;27;20030;-53
2023/07/31 05:54:35;;;;;;;7.95;4.55;;;19.00;99.80;;;;;;4266944;27;20125;-54
2023/07/31 05:56:37;;;;;;;12.30;4.55;;;19.00;99.70;;;;;;4266813;27;20070;-53
2023/07/31 05:58:40;;;;;;;14.07;5.18;;;19.00;99.70;;;;;;4266346;27;20150;-53
2023/07/31 06:00:42;;;;;;;12.52;5.00;;;19.00;99.70;;;;;;4266414;27;20492;-53
2023/07/31 06:02:44;;;;;;;15.60;5.40;;;19.00;99.70;;;;;;4265668;27;20054;-52
2023/07/31 06:04:48;;;;;;;12.73;5.47;;;19.00;99.90;;;;;;4266400;27;20485;-54
2023/07/31 06:06:50;;;;;;;13.65;5.80;;;18.90;99.90;;;;;;4266594;27;20047;-54
2023/07/31 06:08:52;;;;;;;14.88;6.05;;;19.00;99.90;;;;;;4266347;27;20049;-53
2023/07/31 06:10:54;;;;;;;13.00;5.45;;;19.10;99.90;;;;;;4248057;27;20043;-53
2023/07/31 06:12:57;;;;;;;14.68;5.85;;;19.10;99.90;;;;;;4265186;27;20425;-52
2023/07/31 06:14:59;;;;;;;13.77;4.85;;;19.20;99.90;;;;;;4266217;27;20392;-53
2023/07/31 06:17:01;;;;;;;11.38;5.07;;;19.20;99.90;;;;;;4266189;27;20491;-54
2023/07/31 06:19:03;;;;;;;19.08;6.25;;;19.30;99.90;;;;;;4266423;27;20102;-53
2023/07/31 06:21:07;;;;;;;16.92;6.22;;;19.30;99.80;;;;;;4266039;27;20043;-53
2023/07/31 06:23:09;;;;;;;17.45;5.72;;;19.50;99.70;;;;;;4265749;27;20125;-53
2023/07/31 06:25:12;;;;;;;13.43;5.53;;;19.50;99.60;;;;;;4266202;27;20062;-53
2023/07/31 06:27:16;;;;;;;14.80;5.50;;;19.50;99.60;;;;;;4265931;27;20047;-53
2023/07/31 06:29:18;;;;;;;14.68;6.28;;;19.40;99.60;;;;;;4266570;27;20057;-53
2023/07/31 06:31:22;;;;;;;14.27;5.32;;;19.40;99.80;;;;;;4265853;27;20043;-53
2023/07/31 06:33:25;;;;;;;13.43;5.43;;;19.40;99.80;;;;;;4265459;27;20050;-53
2023/07/31 06:35:27;;;;;;;18.40;5.90;;;19.40;99.80;;;;;;4266167;27;20449;-53
2023/07/31 06:37:30;;;;;;;13.93;6.22;;;19.30;99.90;;;;;;4266201;27;20050;-53
2023/07/31 06:39:33;;;;;;;18.45;5.40;;;19.30;99.90;;;;;;4266029;27;20055;-53
2023/07/31 06:41:34;;;;;;;15.23;5.38;;;19.30;99.90;;;;;;4265331;27;20049;-51
2023/07/31 06:43:37;;;;;;;17.10;6.15;;;19.40;99.90;;;;;;4265115;27;20046;-50
2023/07/31 06:45:39;;;;;;;15.27;6.25;;;19.30;99.90;;;;;;4266041;27;20485;-51
2023/07/31 06:47:41;;;;;;;17.00;5.82;;;19.30;99.90;;;;;;4265745;27;20064;-51
2023/07/31 06:49:43;;;;;;;14.93;5.35;;;19.40;99.90;;;;;;4265956;27;20049;-51
2023/07/31 06:51:45;;;;;;;11.77;5.80;;;19.40;99.90;;;;;;4264843;27;20043;-51
2023/07/31 06:53:48;;;;;;;14.50;5.97;;;19.40;99.90;;;;;;4264832;27;20448;-53
2023/07/31 06:55:51;;;;;;;11.82;6.07;;;19.40;99.90;;;;;;4265451;27;20121;-52
2023/07/31 06:57:55;;;;;;;14.50;5.85;;;19.30;99.90;;;;;;4247312;27;20591;-54
2023/07/31 06:59:57;;;;;;;13.95;5.68;;;19.30;99.90;;;;;;4265845;27;20514;-53
2023/07/31 07:01:59;;;;;;;13.85;6.15;;;19.30;99.90;;;;;;4265475;27;20101;-54
2023/07/31 07:04:01;;;;;;;18.10;5.97;;;19.40;99.90;;;;;;4264968;27;20042;-54
2023/07/31 07:06:03;;;;;;;18.52;6.35;;;19.40;99.90;;;;;;4265542;27;20493;-54
2023/07/31 07:08:05;;;;;;;16.75;5.93;;;19.40;99.90;;;;;;4265424;27;20480;-54
2023/07/31 07:10:09;;;;;;;17.73;6.20;;;19.50;99.90;;;;;;4265192;27;20049;-54
2023/07/31 07:12:11;;;;;;;18.60;5.60;;;19.60;99.90;;;;;;4264833;27;20046;-54
2023/07/31 07:14:13;;;;;;;16.92;6.03;;;19.70;99.90;;;;;;4265221;27;20052;-54
2023/07/31 07:16:15;;;;;;;18.05;5.75;;;19.80;99.90;;;;;;4265474;27;20046;-54
2023/07/31 07:18:18;;;;;;;16.08;6.32;;;19.90;99.90;;;;;;4265441;27;20064;-54
2023/07/31 07:20:20;;;;;;;16.17;5.70;;;20.00;99.80;;;;;;4265252;27;20480;-54
2023/07/31 07:22:22;;;;;;;16.58;5.78;;;20.20;99.70;;;;;;4264591;27;20043;-52
2023/07/31 07:24:24;;;;;;;17.40;6.13;;;20.30;99.50;;;;;;4264760;27;20049;-51
2023/07/31 07:26:27;;;;;;;12.85;6.00;;;20.40;99.30;;;;;;4265203;27;20407;-53
2023/07/31 07:28:29;;;;;;;13.98;5.57;;;20.40;99.00;;;;;;4265350;27;20076;-53
2023/07/31 07:30:31;;;;;;;13.88;6.00;;;20.40;99.10;;;;;;4265070;27;20050;-51
2023/07/31 07:32:33;;;;;;;17.42;6.07;;;20.50;99.10;;;;;;4264646;27;20130;-52
2023/07/31 07:34:35;;;;;;;18.90;5.53;;;20.60;98.90;;;;;;4265149;27;20042;-53
2023/07/31 07:36:37;;;;;;;15.23;5.68;;;20.70;98.70;;;;;;4265170;27;20042;-53
2023/07/31 07:38:41;;;;;;;13.25;5.25;;;20.90;98.60;;;;;;4264815;27;20043;-52
2023/07/31 07:40:48;;;;;;;14.35;5.90;;;21.00;98.30;;;;;;4265156;27;20043;-53
2023/07/31 07:42:51;;;;;;;12.73;5.10;;;21.00;97.90;;;;;;4264254;27;20070;-51
2023/07/31 07:44:53;;;;;;;19.05;5.70;;;21.10;98.10;;;;;;4264991;27;20137;-53
2023/07/31 07:46:56;;;;;;;13.80;5.80;;;21.10;97.90;;;;;;4264773;27;20050;-51
2023/07/31 07:48:58;;;;;;;13.55;5.68;;;21.20;97.80;;;;;;4264856;27;20054;-52
2023/07/31 07:51:00;;;;;;;14.98;5.75;;;21.20;97.70;;;;;;4265167;27;20503;-51
2023/07/31 07:53:02;;;;;;;12.52;5.70;;;21.20;97.70;;;;;;4263733;27;20074;-51
2023/07/31 07:55:05;;;;;;;18.25;5.50;;;21.20;97.60;;;;;;4265009;27;20051;-51
2023/07/31 07:57:07;;;;;;;12.95;5.60;;;21.20;97.50;;;;;;4264867;27;20043;-53
2023/07/31 07:59:10;;;;;;;11.82;5.35;;;21.40;97.50;;;;;;4264904;27;20046;-53
2023/07/31 08:01:12;;;;;;;12.52;5.50;;;21.50;97.20;;;;;;4264892;27;20045;-52
2023/07/31 08:03:16;;;;;;;15.23;5.68;;;21.60;97.20;;;;;;4266014;27;20047;-53
2023/07/31 08:05:18;;;;;;;17.83;5.90;;;21.60;97.10;;;;;;4268575;27;20381;-51
2023/07/31 08:07:21;;;;;;;15.93;5.60;;;21.50;97.30;;;;;;4250273;27;20053;-51
2023/07/31 08:09:23;;;;;;;14.52;5.43;;;21.40;97.00;;;;;;4267895;27;20054;-53
2023/07/31 08:11:25;;;;;;;18.50;5.57;;;21.40;97.10;;;;;;4250089;27;20487;-53
2023/07/31 08:13:27;;;;;;;10.57;4.80;;;21.40;97.30;;;;;;4267388;27;20039;-53
2023/07/31 08:15:30;;;;;;;15.32;5.13;;;21.40;97.00;;;;;;4249910;27;20074;-53
2023/07/31 08:17:32;;;;;;;13.88;4.97;;;21.50;96.80;;;;;;4268447;27;20114;-53
2023/07/31 08:19:34;;;;;;;17.10;5.45;;;21.40;96.80;;;;;;4268352;27;20095;-53
2023/07/31 08:21:41;;;;;;;11.32;4.57;;;21.40;96.70;;;;;;4268072;27;20047;-53
2023/07/31 08:23:48;;;;;;;13.10;5.25;;;21.50;96.70;;;;;;4267295;27;20076;-54
2023/07/31 08:25:50;;;;;;;13.15;5.05;;;21.70;96.70;;;;;;4268419;27;20046;-52
2023/07/31 08:27:52;;;;;;;13.88;5.40;;;21.80;96.70;;;;;;4268229;27;20058;-53
2023/07/31 08:29:54;;;;;;;16.90;5.32;;;22.10;96.50;;;;;;4267959;27;20122;-51
2023/07/31 08:31:58;;;;;;;13.45;4.72;;;22.20;96.10;;;;;;4268185;27;20054;-51
2023/07/31 08:34:00;;;;;;;15.35;5.47;;;22.30;95.90;;;;;;4267048;27;20542;-51
2023/07/31 08:36:03;;;;;;;16.02;5.13;;;22.20;95.70;;;;;;4267990;27;20411;-52
2023/07/31 08:38:05;;;;;;;16.67;5.85;;;22.00;95.70;;;;;;4267512;27;20050;-52
2023/07/31 08:40:08;;;;;;;12.75;5.07;;;21.90;95.80;;;;;;4267901;27;20153;-51
2023/07/31 08:42:10;;;;;;;14.73;4.97;;;21.70;95.80;;;;;;4267823;27;20072;-52
2023/07/31 08:44:13;;;;;;;9.25;4.70;;;21.70;95.70;;;;;;4267453;27;20046;-52
2023/07/31 08:46:16;;;;;;;14.20;4.78;;;21.60;95.80;;;;;;4267707;27;20042;-51
2023/07/31 08:48:21;;;;;;;12.10;5.40;;;21.70;96.10;;;;;;4267711;27;20142;-51
2023/07/31 08:50:23;;;;;;;11.88;4.75;;;21.80;96.30;;;;;;4267524;27;20043;-52
2023/07/31 08:52:25;;;;;;;14.38;5.28;;;21.70;96.20;;;;;;4267243;27;20121;-51
2023/07/31 08:54:30;;;;;;;12.13;5.05;;;21.70;96.20;;;;;;4266977;27;20059;-52
2023/07/31 08:56:33;;;;;;;13.25;4.68;;;21.60;96.30;;;;;;4267719;27;20043;-51
2023/07/31 08:58:37;;;;;;;15.45;5.28;;;21.50;96.50;;;;;;4267299;27;20053;-52
2023/07/31 09:00:40;;;;;;;16.77;5.57;;;21.50;96.60;;;;;;4267701;27;20485;-51
2023/07/31 09:02:48;;;;;;;14.82;4.97;;;21.60;96.60;;;;;;4266663;27;20099;-51
2023/07/31 09:04:51;;;;;;;14.88;4.60;;;21.60;96.50;;;;;;4267337;27;20095;-54
2023/07/31 09:06:59;;;;;;;18.85;5.35;;;21.60;96.40;;;;;;4267058;27;20067;-54
2023/07/31 09:09:01;;;;;;;10.57;4.43;;;21.60;96.60;;;;;;4267286;27;20053;-53
2023/07/31 09:11:04;;;;;;;12.18;4.38;;;21.50;96.50;;;;;;4267551;27;20443;-52
2023/07/31 09:13:07;;;;;;;10.77;4.47;;;21.50;96.60;;;;;;4266788;27;20099;-50
2023/07/31 09:15:14;;;;;;;15.10;4.30;;;21.40;96.60;;;;;;4266644;27;20074;-54
2023/07/31 09:17:37;;;;;;;9.07;4.32;;;21.40;97.00;;;;;;4267340;27;20046;-54
2023/07/31 09:19:39;;;;;;;9.82;4.47;;;21.40;96.90;;;;;;4267369;27;20054;-54
2023/07/31 09:21:49;;;;;;;12.70;4.57;;;21.40;97.10;;;;;;4266848;27;20049;-54
2023/07/31 09:23:53;;;;;;;8.55;4.10;;;21.50;97.10;;;;;;4266744;27;20125;-53
2023/07/31 09:25:56;;;;;;;7.75;4.00;;;21.50;96.90;;;;;;4250098;27;20492;-53
2023/07/31 09:27:59;;;;;;;13.85;4.57;;;21.60;97.00;;;;;;4250185;27;20404;-54
2023/07/31 09:30:01;;;;;;;13.07;4.07;;;21.60;96.90;;;;;;4249859;27;20047;-52
2023/07/31 09:32:03;;;;;;;9.50;3.78;;;21.60;96.90;;;;;;4250165;27;20066;-52
2023/07/31 09:34:06;;;;;;;9.60;4.28;;;21.50;96.90;;;;;;4249354;27;20047;-53
2023/07/31 09:36:08;;;;;;;8.85;4.32;;;21.40;97.00;;;;;;4249516;27;20118;-54
2023/07/31 09:38:15;;;;;;;10.98;3.90;;;21.40;97.30;;;;;;4249955;27;20050;-55
2023/07/31 09:40:27;;;;;;;10.50;4.65;;;21.20;97.40;;;;;;4249743;27;20070;-54
2023/07/31 09:42:31;;;;;;;9.52;4.45;;;21.20;97.80;;;;;;4249811;27;20039;-54
2023/07/31 09:44:40;;;;;;;15.80;4.82;;;21.20;97.80;;;;;;4249147;27;20058;-54
2023/07/31 09:46:43;;;;;;;11.10;4.65;;;21.10;97.80;;;;;;4249442;27;20051;-53
2023/07/31 09:48:46;;;;;;;15.07;4.90;;;21.00;98.00;;;;;;4249682;27;20055;-53
2023/07/31 09:50:49;;;;;;;12.68;5.15;;;21.00;98.20;;;;;;4249323;27;20423;-53
2023/07/31 09:52:51;;;;;;;9.50;4.85;;;21.10;98.10;;;;;;4248786;27;20489;-54
2023/07/31 09:54:55;;;;;;;10.57;4.63;;;21.00;98.30;;;;;;4231356;28;20135;-54
2023/07/31 09:57:00;;;;;;;13.45;5.03;;;21.10;98.20;;;;;;4249460;27;20126;-53
2023/07/31 09:59:04;;;;;;;15.25;4.72;;;21.20;98.30;;;;;;4249445;27;20442;-53
2023/07/31 10:01:07;;;;;;;;;;;21.10;98.30;;;;;;4231851;28;20048;-53
2023/07/31 10:03:11;;;;;;;12.55;4.70;;;21.10;98.50;;;;;;4248687;27;19951;-53
2023/07/31 10:05:17;;;;;;;11.57;4.93;;;21.00;98.40;;;;;;4230700;28;20123;-54
2023/07/31 10:07:22;;;;;;;15.95;4.72;;;20.90;98.70;;;;;;4249487;27;20057;-53
2023/07/31 10:09:31;;;;;;;10.85;4.90;;;20.90;98.80;;;;;;4249480;27;20043;-53
2023/07/31 10:11:40;;;;;;;13.13;5.47;;;20.80;99.40;;;;;;4249390;27;20130;-54
2023/07/31 10:13:42;;;;;;;11.35;5.13;;;20.80;99.90;;;;;;4248388;27;20043;-53
2023/07/31 10:15:45;;;;;;;19.83;5.55;;;20.80;99.90;;;;;;4249355;27;20074;-54
2023/07/31 10:17:48;;;;;;;13.23;4.93;;;20.70;99.90;;;;;;4249005;27;20050;-54
2023/07/31 10:19:50;;;;;;;10.38;4.82;;;20.60;99.90;;;;;;4248744;27;20096;-53
2023/07/31 10:21:53;;;;;;;14.25;5.72;;;20.60;99.90;;;;;;4249127;27;20070;-53
2023/07/31 10:23:56;;;;;;;14.02;4.85;;;20.50;99.90;;;;;;4248486;27;20051;-54
2023/07/31 10:26:00;;;;;;;13.50;4.88;;;20.50;99.90;;;;;;4265567;27;20038;-54
2023/07/31 10:28:04;;;;;;;10.13;4.28;;;20.40;99.90;;;;;;4265889;27;20067;-54
2023/07/31 10:30:09;;;;;;;10.15;4.82;;;20.40;99.90;;;;;;4266101;27;20069;-54
2023/07/31 10:32:12;;;;;;;12.60;5.30;;;20.30;99.90;;;;;;4266061;27;20049;-53
2023/07/31 10:34:14;;;;;;;10.27;4.25;;;20.40;99.90;;;;;;4265143;27;20070;-54
2023/07/31 10:36:18;;;;;;;11.95;4.88;;;20.40;99.90;;;;;;4265783;27;20051;-54
2023/07/31 10:38:23;;;;;;;10.90;5.63;;;20.50;99.90;;;;;;4247606;27;20072;-54